Ever Develop — 3FLF8 — position and weather

sailwx.info

Track history (hours):
 
Tides and Currents Weather Stations Pressure Air Temp Water Temp Dewpoint Dewpoint Depression Visibility Wind Speed Wind Dir Waves Ship Positions

Ever Develop

Last reported at 2015-Mar-23 22:00 UTC. Time now 2015-Mar-29 19:36 UTC.
Position N 22°36' W 111°18'.

Type: Ship (hazmat cat D). MMSI: 356391000.

Wind from 340 at 16 knots

Waves 0.5 meters (2 feet), 3 second period

Barometer 1014.0 mb
Air temperature 23.9 ° C
Visibility: greater than 5.4 NM
Dewpoint 22.0 ° C
Water temperature 22.0 ° C

Date/timePositionNaut miles runAvg speedWind from/ knotsBaromVisibWave heightAir tempDewpointWater temp
2015-Mar-23 22:00N 22°36' W 111°18'32618.6 340 / 161014.0 5.4 0.523.922.022.0
2015-Mar-23 04:27N 25°28' W 116°21'9718.6
2015-Mar-22 23:15N 26°17' W 117°54'3718.2
2015-Mar-22 21:14N 26°36' W 118°29'1618.1
2015-Mar-22 20:22N 26°43' W 118°44'3718.9
2015-Mar-22 18:23N 27°02' W 119°21'1619.0
2015-Mar-22 17:33N 27°09' W 119°36'1919.0
2015-Mar-22 16:33N 27°19' W 119°55'1918.9
2015-Mar-22 15:33N 27°28' W 120°14'1918.8
2015-Mar-22 14:33N 27°37' W 120°32'1919.0
2015-Mar-22 13:33N 27°46' W 120°51'1919.1
2015-Mar-22 12:33N 27°55' W 121°10'1919.0
2015-Mar-22 11:33N 28°04' W 121°29'3819.1
2015-Mar-22 09:33N 28°22' W 122°07'1919.2
2015-Mar-22 08:33N 28°31' W 122°27'2319.0
2015-Mar-22 07:22N 28°42' W 122°49'1619.2
2015-Mar-22 06:33N 28°49' W 123°05'1919.3
2015-Mar-22 05:33N 28°58' W 123°25'1919.0
2015-Mar-22 04:33N 29°07' W 123°44'1919.3
2015-Mar-22 03:33N 29°15' W 124°04'1918.8
2015-Mar-22 02:33N 29°24' W 124°23'2218.4
2015-Mar-22 01:23N 29°34' W 124°45'1518.5
2015-Mar-22 00:33N 29°40' W 125°01'1919.1
2015-Mar-21 23:33N 29°49' W 125°20'1918.6
2015-Mar-21 22:33N 29°57' W 125°40'1818.2
2015-Mar-21 21:33N 30°05' W 125°58'1818.3
2015-Mar-21 20:33N 30°14' W 126°17'5718.8
2015-Mar-21 17:32N 30°38' W 127°17'  
2015-Mar-17 02:00N 39°00' W 168°06'   1.0 21.0
Track history (hours):
 
Tides and Currents Weather Stations Pressure Air Temp Water Temp Dewpoint Dewpoint Depression Visibility Wind Speed Wind Dir Waves Ship Positions

Ever Develop

Last reported at 2015-Mar-23 22:00 UTC. Time now 2015-Mar-29 19:36 UTC.
Position N 22°36' W 111°18'.

Type: Ship (hazmat cat D). MMSI: 356391000.

Wind from 340 at 16 knots

Waves 0.5 meters (2 feet), 3 second period

Barometer 1014.0 mb
Air temperature 23.9 ° C
Visibility: greater than 5.4 NM
Dewpoint 22.0 ° C
Water temperature 22.0 ° C

Date/timePositionNaut miles runAvg speedWind from/ knotsBaromVisibWave heightAir tempDewpointWater temp
2015-Mar-23 22:00N 22°36' W 111°18'32618.6 340 / 161014.0 5.4 0.523.922.022.0
2015-Mar-23 04:27N 25°28' W 116°21'9718.6
2015-Mar-22 23:15N 26°17' W 117°54'3718.2
2015-Mar-22 21:14N 26°36' W 118°29'1618.1
2015-Mar-22 20:22N 26°43' W 118°44'3718.9
2015-Mar-22 18:23N 27°02' W 119°21'1619.0
2015-Mar-22 17:33N 27°09' W 119°36'1919.0
2015-Mar-22 16:33N 27°19' W 119°55'1918.9
2015-Mar-22 15:33N 27°28' W 120°14'1918.8
2015-Mar-22 14:33N 27°37' W 120°32'1919.0
2015-Mar-22 13:33N 27°46' W 120°51'1919.1
2015-Mar-22 12:33N 27°55' W 121°10'1919.0
2015-Mar-22 11:33N 28°04' W 121°29'3819.1
2015-Mar-22 09:33N 28°22' W 122°07'1919.2
2015-Mar-22 08:33N 28°31' W 122°27'2319.0
2015-Mar-22 07:22N 28°42' W 122°49'1619.2
2015-Mar-22 06:33N 28°49' W 123°05'1919.3
2015-Mar-22 05:33N 28°58' W 123°25'1919.0
2015-Mar-22 04:33N 29°07' W 123°44'1919.3
2015-Mar-22 03:33N 29°15' W 124°04'1918.8
2015-Mar-22 02:33N 29°24' W 124°23'2218.4
2015-Mar-22 01:23N 29°34' W 124°45'1518.5
2015-Mar-22 00:33N 29°40' W 125°01'1919.1
2015-Mar-21 23:33N 29°49' W 125°20'1918.6
2015-Mar-21 22:33N 29°57' W 125°40'1818.2
2015-Mar-21 21:33N 30°05' W 125°58'1818.3
2015-Mar-21 20:33N 30°14' W 126°17'5718.8
2015-Mar-21 17:32N 30°38' W 127°17'  
2015-Mar-17 02:00N 39°00' W 168°06'   1.0 21.0

Dump ship's entire track history